Pagina principale
METAR-TAF:

METAR-TAF

Aeroporti :

Aeroporto di Craiova

Craiova, Romania

latitudine: 44-14N, longitudine: 023-52E, altezza: 192 m

Osservazione

Il bollettino è stato emesso 36 minuti fa, alle 14:00 UTC
Vento 8 kt da nord/nord-ovest, variando fra nord-ovest e nord
Temperature 32°C
Umidità 32%
Pressione 1013 hPa
Visibilità 10 km o più
nessuna nube inferiore a 1500 m e nessun cumulonembo

METAR: LRCV 171400Z 33008KT 310V010 CAVOK 32/13 Q1013

Ora: 17:36 (14:36 UTC)

Previsione

Il bollettino è stato emesso 3 ore e 36 minuti fa, alle 11:00 UTC
Previsione valida dal 17 alle 12 UTC al 17 alle 21 UTC
Vento 7 kt da ovest/nord-ovest
Visibilità 10 km o più
nessuna nube inferiore a 1500 m e nessun cumulonembo

TAF: LRCV 171100Z 1712/1721 29007KT CAVOK

Osservazioni e previsioni meteorologiche di più di 4000 aeroporti (messaggi METAR e TAF).

Le stazioni disponibili sono rappresentate dai dischi gialli e rossi sulla carta.

Puntare il mouse per vedere il nome della stazione.

Clicca sopra per visualizzare le osservazioni e previsioni meteorologiche.

Per cambiare la mappa : fare clic sui pulsanti verdi con una croce nera per ingrandire, il pulsante verde con un trattino per diminuire, o sulla freccia verde per le mappe adiacenti.


METAR-TAF: